createdAt,value
2019-04-21T00:01:52.122Z,99.90
2019-04-21T00:04:33.245Z,99.90
2019-04-21T00:07:10.415Z,99.90
2019-04-21T00:09:48.069Z,99.90
2019-04-21T00:12:13.789Z,99.90
2019-04-21T00:14:35.003Z,99.90
2019-04-21T00:17:00.645Z,99.90
2019-04-21T00:19:47.688Z,99.90
2019-04-21T00:22:33.150Z,99.90
2019-04-21T00:25:03.158Z,99.90
2019-04-21T00:27:35.137Z,99.90
2019-04-21T00:30:14.217Z,99.90
2019-04-21T00:32:31.665Z,99.90
2019-04-21T00:34:56.520Z,99.90
2019-04-21T00:37:30.290Z,99.90
2019-04-21T00:40:13.197Z,99.90
2019-04-21T00:42:41.568Z,99.90
2019-04-21T00:45:10.779Z,99.90
2019-04-21T00:47:45.929Z,99.90
2019-04-21T00:50:10.796Z,99.90
2019-04-21T00:52:56.256Z,99.90
2019-04-21T00:57:58.588Z,99.90
2019-04-21T01:00:27.418Z,99.90
2019-04-21T01:03:14.239Z,99.90
2019-04-21T01:05:26.964Z,99.90
2019-04-21T01:07:59.414Z,99.90
2019-04-21T01:10:24.136Z,99.90
2019-04-21T01:13:05.204Z,99.90
2019-04-21T01:15:38.159Z,99.90
2019-04-21T01:18:04.849Z,99.90
2019-04-21T01:20:17.301Z,99.90
2019-04-21T01:22:43.221Z,99.90
2019-04-21T01:25:19.864Z,99.90
2019-04-21T01:27:59.443Z,99.90
2019-04-21T01:30:34.689Z,99.90
2019-04-21T01:33:07.227Z,99.90
2019-04-21T01:35:34.285Z,99.90
2019-04-21T01:38:12.544Z,99.90
2019-04-21T01:40:43.335Z,99.90
2019-04-21T01:43:07.429Z,99.90
2019-04-21T01:45:37.351Z,99.90
2019-04-21T01:48:06.261Z,99.90
2019-04-21T01:50:34.427Z,99.90
2019-04-21T01:53:17.574Z,99.90
2019-04-21T01:56:12.088Z,99.90
2019-04-21T01:58:36.583Z,99.90
2019-04-21T02:01:21.196Z,99.90
2019-04-21T02:03:54.347Z,99.90
2019-04-21T02:06:21.302Z,99.90
2019-04-21T02:08:49.069Z,99.90
2019-04-21T02:11:24.436Z,99.90
2019-04-21T02:13:58.914Z,99.90
2019-04-21T02:16:25.968Z,99.90
2019-04-21T02:18:49.398Z,99.90
2019-04-21T02:21:20.378Z,99.90
2019-04-21T02:23:59.064Z,99.90
2019-04-21T02:26:27.216Z,99.90
2019-04-21T02:32:00.355Z,99.90
2019-04-21T02:34:23.915Z,99.90
2019-04-21T02:37:05.209Z,99.90
2019-04-21T02:41:55.734Z,99.90
2019-04-21T02:44:30.303Z,99.90
2019-04-21T02:46:50.307Z,99.90
2019-04-21T02:49:39.883Z,99.90
2019-04-21T02:52:01.340Z,99.90
2019-04-21T02:57:01.290Z,99.90
2019-04-21T02:59:49.401Z,99.90
2019-04-21T03:02:35.441Z,99.90
2019-04-21T03:05:36.416Z,99.90
2019-04-21T03:08:09.906Z,99.90
2019-04-21T03:13:06.029Z,99.90
2019-04-21T03:15:37.629Z,99.90
2019-04-21T03:28:22.607Z,99.90
2019-04-21T03:31:06.556Z,99.90
2019-04-21T03:38:17.150Z,99.90
2019-04-21T03:43:12.671Z,99.90
2019-04-21T03:50:39.713Z,99.90
2019-04-21T03:58:23.916Z,99.90
2019-04-21T04:01:11.805Z,99.90
2019-04-21T04:04:15.168Z,99.90
2019-04-21T04:06:24.597Z,99.90
2019-04-21T04:09:27.959Z,99.90
2019-04-21T04:11:53.055Z,99.90
2019-04-21T04:14:39.991Z,99.90
2019-04-21T04:16:57.070Z,99.90
2019-04-21T04:19:26.280Z,99.90
2019-04-21T04:22:01.289Z,99.90
2019-04-21T04:24:44.673Z,99.90
2019-04-21T04:31:47.621Z,99.90
2019-04-21T04:42:31.941Z,99.90
2019-04-21T04:54:55.817Z,99.90
2019-04-21T05:00:01.713Z,99.90
2019-04-21T05:05:09.127Z,99.90
2019-04-21T05:07:21.322Z,99.90
2019-04-21T05:09:55.479Z,99.90
2019-04-21T05:12:22.782Z,99.90
2019-04-21T05:14:55.081Z,99.90
2019-04-21T05:22:22.229Z,99.90
2019-04-21T05:24:44.059Z,99.90
2019-04-21T05:27:34.936Z,99.90
2019-04-21T05:30:17.346Z,99.90
2019-04-21T05:32:45.190Z,99.90
2019-04-21T05:35:41.830Z,99.90
2019-04-21T05:38:10.438Z,99.90
2019-04-21T05:40:36.943Z,99.90
2019-04-21T05:43:09.436Z,99.90
2019-04-21T05:45:48.979Z,99.90
2019-04-21T05:48:39.239Z,99.90
2019-04-21T05:51:03.664Z,99.90
2019-04-21T05:53:36.326Z,99.90
2019-04-21T05:56:12.809Z,99.90
2019-04-21T05:58:39.149Z,99.90
2019-04-21T06:06:20.269Z,99.90
2019-04-21T06:08:46.788Z,99.90
2019-04-21T06:11:17.890Z,99.90
2019-04-21T06:16:13.952Z,99.90
2019-04-21T06:18:53.232Z,99.90
2019-04-21T06:21:16.326Z,99.90
2019-04-21T06:23:47.875Z,99.90
2019-04-21T06:26:49.186Z,99.90
2019-04-21T06:29:05.577Z,99.90
2019-04-21T06:31:33.782Z,99.90
2019-04-21T06:34:04.950Z,99.90
2019-04-21T06:36:44.033Z,99.90
2019-04-21T06:39:12.155Z,99.90
2019-04-21T06:41:34.358Z,99.90
2019-04-21T06:46:41.279Z,99.90
2019-04-21T06:49:08.622Z,99.90
2019-04-21T06:54:09.541Z,99.90
2019-04-21T06:56:41.264Z,99.90
2019-04-21T06:59:22.166Z,99.90
2019-04-21T07:01:45.191Z,99.90
2019-04-21T07:04:21.026Z,99.90
2019-04-21T07:06:52.020Z,99.90
2019-04-21T07:09:20.749Z,99.90
2019-04-21T07:11:36.840Z,99.90
2019-04-21T07:14:27.345Z,99.90
2019-04-21T07:16:44.719Z,99.90
2019-04-21T07:19:25.738Z,99.90
2019-04-21T07:21:46.753Z,99.80
2019-04-21T07:24:21.161Z,99.90
2019-04-21T07:26:51.057Z,98.10
2019-04-21T07:29:25.893Z,98.20
2019-04-21T07:31:55.587Z,97.10
2019-04-21T07:34:23.944Z,95.80
2019-04-21T07:37:05.765Z,95.40
2019-04-21T07:39:18.038Z,95.80
2019-04-21T07:41:44.069Z,94.70
2019-04-21T07:44:09.151Z,93.70
2019-04-21T07:46:41.683Z,92.70
2019-04-21T07:49:46.261Z,93.90
2019-04-21T07:52:28.607Z,92.80
2019-04-21T07:55:06.232Z,91.50
2019-04-21T07:57:23.770Z,91.40
2019-04-21T08:00:07.123Z,93.20
2019-04-21T08:02:30.753Z,91.20
2019-04-21T08:05:05.547Z,91.70
2019-04-21T08:07:36.546Z,90.50
2019-04-21T08:09:58.713Z,89.80
2019-04-21T08:12:24.383Z,88.30
2019-04-21T08:14:57.547Z,90.30
2019-04-21T08:17:34.860Z,86.10
2019-04-21T08:19:59.098Z,85.30
2019-04-21T08:22:35.135Z,84.50
2019-04-21T08:25:03.353Z,81.00
2019-04-21T08:27:36.512Z,84.70
2019-04-21T08:30:05.019Z,79.10
2019-04-21T08:32:44.410Z,84.10
2019-04-21T08:35:23.969Z,81.10
2019-04-21T08:37:30.719Z,81.20
2019-04-21T08:40:09.636Z,80.90
2019-04-21T08:42:31.584Z,79.20
2019-04-21T08:45:10.747Z,77.00
2019-04-21T08:47:39.816Z,78.00
2019-04-21T08:50:08.269Z,77.00
2019-04-21T08:52:45.786Z,75.40
2019-04-21T08:55:22.540Z,75.40
2019-04-21T08:58:08.794Z,74.30
2019-04-21T09:00:42.669Z,74.80
2019-04-21T09:03:19.533Z,69.50
2019-04-21T09:05:46.714Z,72.10
2019-04-21T09:08:21.652Z,71.20
2019-04-21T09:10:51.802Z,73.50
2019-04-21T09:13:17.208Z,72.30
2019-04-21T09:15:47.393Z,71.80
2019-04-21T09:18:16.631Z,70.90
2019-04-21T09:20:55.184Z,68.30
2019-04-21T09:23:20.427Z,66.20
2019-04-21T09:25:53.151Z,68.20
2019-04-21T09:28:18.317Z,67.40
2019-04-21T09:30:39.520Z,68.20
2019-04-21T09:33:05.183Z,71.20
2019-04-21T09:35:33.539Z,63.70
2019-04-21T09:38:15.142Z,67.80
2019-04-21T09:40:37.158Z,63.10
2019-04-21T09:43:09.423Z,64.60
2019-04-21T09:45:35.595Z,66.00
2019-04-21T09:48:11.520Z,65.60
2019-04-21T09:50:37.737Z,66.30
2019-04-21T09:53:16.800Z,63.80
2019-04-21T09:55:44.086Z,64.10
2019-04-21T09:58:15.111Z,64.80
2019-04-21T10:00:46.388Z,62.50
2019-04-21T10:03:10.295Z,65.10
2019-04-21T10:05:39.999Z,61.00
2019-04-21T10:08:10.325Z,65.50
2019-04-21T10:10:40.027Z,63.50
2019-04-21T10:13:08.903Z,63.60
2019-04-21T10:15:37.731Z,60.00
2019-04-21T10:18:11.309Z,57.50
2019-04-21T10:20:40.647Z,58.60
2019-04-21T10:23:09.614Z,59.20
2019-04-21T10:25:40.604Z,59.10
2019-04-21T10:28:10.941Z,59.00
2019-04-21T10:30:40.749Z,59.50
2019-04-21T10:33:10.395Z,54.00
2019-04-21T10:35:39.437Z,58.90
2019-04-21T10:38:19.785Z,62.90
2019-04-21T10:40:39.271Z,57.70
2019-04-21T10:43:11.625Z,60.30
2019-04-21T10:45:39.150Z,57.10
2019-04-21T10:48:08.145Z,54.50
2019-04-21T10:50:37.090Z,55.70
2019-04-21T10:53:16.787Z,55.70
2019-04-21T10:56:00.401Z,54.90
2019-04-21T10:58:22.537Z,56.40
2019-04-21T11:00:55.694Z,57.10
2019-04-21T11:03:33.183Z,58.30
2019-04-21T11:06:03.264Z,55.10
2019-04-21T11:08:37.950Z,54.80
2019-04-21T11:11:06.125Z,53.30
2019-04-21T11:13:35.045Z,52.90
2019-04-21T11:16:05.377Z,56.60
2019-04-21T11:18:35.916Z,48.80
2019-04-21T11:21:05.192Z,54.70
2019-04-21T11:23:35.218Z,51.80
2019-04-21T11:26:04.418Z,53.40
2019-04-21T11:28:34.612Z,54.10
2019-04-21T11:31:04.889Z,52.20
2019-04-21T11:33:35.442Z,52.20
2019-04-21T11:36:04.373Z,55.90
2019-04-21T11:38:58.443Z,49.40
2019-04-21T11:41:15.924Z,50.00
2019-04-21T11:43:45.376Z,52.70
2019-04-21T11:46:14.330Z,52.00
2019-04-21T11:48:44.090Z,53.10
2019-04-21T11:51:13.161Z,50.60
2019-04-21T11:53:43.134Z,53.00
2019-04-21T11:56:14.686Z,51.00
2019-04-21T11:58:43.956Z,51.20
2019-04-21T12:01:13.898Z,49.60
2019-04-21T12:03:42.760Z,51.70
2019-04-21T12:06:11.572Z,49.80
2019-04-21T12:08:44.061Z,51.10
2019-04-21T12:11:11.413Z,47.70
2019-04-21T12:13:40.417Z,51.70
2019-04-21T12:16:12.883Z,50.50
2019-04-21T12:18:42.984Z,47.30
2019-04-21T12:21:13.657Z,48.00
2019-04-21T12:23:42.799Z,50.70
2019-04-21T12:26:11.691Z,48.40
2019-04-21T12:28:41.740Z,47.60
2019-04-21T12:31:51.693Z,45.50
2019-04-21T12:34:21.871Z,45.70
2019-04-21T12:36:50.887Z,48.40
2019-04-21T12:39:20.841Z,49.50
2019-04-21T12:41:50.765Z,48.10
2019-04-21T12:44:20.487Z,46.50
2019-04-21T12:46:49.840Z,48.70
2019-04-21T12:49:19.978Z,45.60
2019-04-21T12:51:49.628Z,46.90
2019-04-21T12:54:19.642Z,44.50
2019-04-21T12:56:49.482Z,47.70
2019-04-21T12:59:19.114Z,44.30
2019-04-21T13:01:48.613Z,45.20
2019-04-21T13:04:17.755Z,44.20
2019-04-21T13:06:47.617Z,43.10
2019-04-21T13:09:20.030Z,44.30
2019-04-21T13:11:47.349Z,45.40
2019-04-21T13:14:16.169Z,48.00
2019-04-21T13:16:45.725Z,44.40
2019-04-21T13:19:15.585Z,44.80
2019-04-21T13:21:45.743Z,47.80
2019-04-21T13:24:15.904Z,44.80
2019-04-21T13:26:51.128Z,44.40
2019-04-21T13:29:16.496Z,44.90
2019-04-21T13:31:45.518Z,44.90
2019-04-21T13:34:15.780Z,43.60
2019-04-21T13:36:45.535Z,44.20
2019-04-21T13:40:09.747Z,43.00
2019-04-21T13:42:28.226Z,45.20
2019-04-21T13:44:48.850Z,44.00
2019-04-21T13:47:18.615Z,43.60
2019-04-21T13:49:47.683Z,43.10
2019-04-21T13:52:16.763Z,40.60
2019-04-21T13:54:45.644Z,42.70
2019-04-21T13:57:14.496Z,42.40
2019-04-21T13:59:44.502Z,42.90
2019-04-21T14:02:13.447Z,41.00
2019-04-21T14:04:43.259Z,43.10
2019-04-21T14:07:12.281Z,40.90
2019-04-21T14:09:50.018Z,41.90
2019-04-21T14:12:11.802Z,42.60
2019-04-21T14:14:41.969Z,43.00
2019-04-21T14:17:11.017Z,41.40
2019-04-21T14:19:41.428Z,40.50
2019-04-21T14:22:13.906Z,42.10
2019-04-21T14:24:43.793Z,42.60
2019-04-21T14:27:14.251Z,40.90
2019-04-21T14:29:43.835Z,40.50
2019-04-21T14:32:14.014Z,42.60
2019-04-21T14:34:44.342Z,43.10
2019-04-21T14:37:14.749Z,40.50
2019-04-21T14:39:52.762Z,41.10
2019-04-21T14:42:14.443Z,41.50
2019-04-21T14:44:43.334Z,41.90
2019-04-21T14:47:31.526Z,42.80
2019-04-21T14:50:20.020Z,42.90
2019-04-21T14:53:08.013Z,41.90
2019-04-21T14:55:41.585Z,42.20
2019-04-21T14:58:10.513Z,43.10
2019-04-21T15:01:10.295Z,42.90
2019-04-21T15:03:39.589Z,43.20
2019-04-21T15:06:11.614Z,44.50
2019-04-21T15:08:40.547Z,44.20
2019-04-21T15:11:09.453Z,43.40
2019-04-21T15:13:39.649Z,45.20
2019-04-21T15:16:08.962Z,44.40
2019-04-21T15:18:38.935Z,45.00
2019-04-21T15:21:08.427Z,43.40
2019-04-21T15:23:38.239Z,43.80
2019-04-21T15:26:08.303Z,44.10
2019-04-21T15:28:38.818Z,43.00
2019-04-21T15:31:08.352Z,45.20
2019-04-21T15:33:37.186Z,47.20
2019-04-21T15:36:07.055Z,46.90
2019-04-21T15:38:36.076Z,46.40
2019-04-21T15:41:10.127Z,46.30
2019-04-21T15:43:36.388Z,46.50
2019-04-21T15:46:06.656Z,45.40
2019-04-21T15:48:36.962Z,47.70
2019-04-21T15:51:08.644Z,47.10
2019-04-21T15:53:37.476Z,46.20
2019-04-21T15:56:11.026Z,46.90
2019-04-21T15:58:58.901Z,47.20
2019-04-21T16:01:34.581Z,45.80
2019-04-21T16:04:04.739Z,46.70
2019-04-21T16:06:35.272Z,46.80
2019-04-21T16:09:08.412Z,47.60
2019-04-21T16:11:37.884Z,48.20
2019-04-21T16:14:10.116Z,47.40
2019-04-21T16:16:39.195Z,48.10
2019-04-21T16:19:08.239Z,46.40
2019-04-21T16:21:42.119Z,50.50
2019-04-21T16:24:08.896Z,54.30
2019-04-21T16:26:38.448Z,52.60
2019-04-21T16:29:08.986Z,49.60
2019-04-21T16:31:38.430Z,51.60
2019-04-21T16:34:07.286Z,49.00
2019-04-21T16:36:38.006Z,52.20
2019-04-21T16:39:09.511Z,47.80
2019-04-21T16:41:38.469Z,55.10
2019-04-21T16:44:09.290Z,49.90
2019-04-21T16:46:38.354Z,50.00
2019-04-21T16:49:07.564Z,49.90
2019-04-21T16:51:38.065Z,50.80
2019-04-21T16:54:19.977Z,50.30
2019-04-21T16:57:08.204Z,49.20
2019-04-21T16:59:44.479Z,50.00
2019-04-21T17:02:14.520Z,52.00
2019-04-21T17:04:44.348Z,50.80
2019-04-21T17:07:14.988Z,51.40
2019-04-21T17:09:44.397Z,50.60
2019-04-21T17:12:14.667Z,51.30
2019-04-21T17:14:58.465Z,50.80
2019-04-21T17:17:36.850Z,51.10
2019-04-21T17:19:48.492Z,50.30
2019-04-21T17:22:15.772Z,49.70
2019-04-21T17:24:44.612Z,52.40
2019-04-21T17:27:13.507Z,53.20
2019-04-21T17:29:43.041Z,51.40
2019-04-21T17:32:12.475Z,51.00
2019-04-21T17:34:41.377Z,54.00
2019-04-21T17:37:11.004Z,53.90
2019-04-21T17:39:40.675Z,52.50
2019-04-21T17:42:18.678Z,51.90
2019-04-21T17:44:41.283Z,53.20
2019-04-21T17:47:21.481Z,52.80
2019-04-21T17:49:43.121Z,55.80
2019-04-21T17:52:36.617Z,53.60
2019-04-21T17:55:11.259Z,54.10
2019-04-21T17:57:53.014Z,55.80
2019-04-21T18:00:42.037Z,57.40
2019-04-21T18:03:01.939Z,56.70
2019-04-21T18:05:32.243Z,58.40
2019-04-21T18:07:54.756Z,57.50
2019-04-21T18:10:33.866Z,57.20
2019-04-21T18:12:55.300Z,57.70
2019-04-21T18:15:34.022Z,60.50
2019-04-21T18:17:46.852Z,60.60
2019-04-21T18:20:20.117Z,63.20
2019-04-21T18:23:00.923Z,65.50
2019-04-21T18:25:43.855Z,64.30
2019-04-21T18:28:01.189Z,63.80
2019-04-21T18:31:00.464Z,64.40
2019-04-21T18:33:33.828Z,66.70
2019-04-21T18:36:34.100Z,63.80
2019-04-21T18:39:23.458Z,67.40
2019-04-21T18:42:02.470Z,65.70
2019-04-21T18:45:11.038Z,63.60
2019-04-21T18:47:27.611Z,65.00
2019-04-21T18:49:44.240Z,67.60
2019-04-21T18:52:26.913Z,67.90
2019-04-21T18:55:01.588Z,65.00
2019-04-21T18:57:30.936Z,70.70
2019-04-21T18:59:51.313Z,71.60
2019-04-21T19:02:22.360Z,68.60
2019-04-21T19:04:54.375Z,68.10
2019-04-21T19:07:37.387Z,67.00
2019-04-21T19:13:27.930Z,73.00
2019-04-21T19:15:07.157Z,70.50
2019-04-21T19:22:43.125Z,69.50
2019-04-21T19:25:16.444Z,71.00
2019-04-21T19:27:41.853Z,68.90
2019-04-21T19:32:59.470Z,70.10
2019-04-21T19:35:10.821Z,70.00
2019-04-21T19:37:49.583Z,69.70
2019-04-21T19:40:31.288Z,70.50
2019-04-21T19:42:53.265Z,70.80
2019-04-21T19:45:27.978Z,72.60
2019-04-21T19:48:08.066Z,71.80
2019-04-21T19:50:35.276Z,72.50
2019-04-21T19:52:57.828Z,71.50
2019-04-21T19:55:18.215Z,73.50
2019-04-21T19:57:47.194Z,72.70
2019-04-21T20:00:17.843Z,72.50
2019-04-21T20:02:48.385Z,74.60
2019-04-21T20:05:29.252Z,74.50
2019-04-21T20:08:06.396Z,74.40
2019-04-21T20:10:39.472Z,75.00
2019-04-21T20:13:07.845Z,75.00
2019-04-21T20:15:41.941Z,75.20
2019-04-21T20:18:06.238Z,76.10
2019-04-21T20:20:24.901Z,76.10
2019-04-21T20:22:55.626Z,77.00
2019-04-21T20:25:25.675Z,76.30
2019-04-21T20:28:04.957Z,77.00
2019-04-21T20:30:42.321Z,77.10
2019-04-21T20:33:38.205Z,77.10
2019-04-21T20:35:59.404Z,77.60
2019-04-21T20:38:16.128Z,77.20
2019-04-21T20:40:44.191Z,77.50
2019-04-21T20:43:28.524Z,78.70
2019-04-21T20:45:55.138Z,78.80
2019-04-21T20:48:15.329Z,78.80
2019-04-21T20:50:49.264Z,80.60
2019-04-21T20:53:25.118Z,80.10
2019-04-21T20:55:48.617Z,80.70
2019-04-21T20:58:25.400Z,81.30
2019-04-21T21:01:06.355Z,81.50
2019-04-21T21:03:34.034Z,81.90
2019-04-21T21:05:50.454Z,81.00
2019-04-21T21:08:32.760Z,82.20
2019-04-21T21:10:53.759Z,81.80
2019-04-21T21:13:39.694Z,81.10
2019-04-21T21:16:10.243Z,80.70
2019-04-21T21:18:51.385Z,83.10
2019-04-21T21:20:59.395Z,83.50
2019-04-21T21:23:40.180Z,82.60
2019-04-21T21:26:14.809Z,83.00
2019-04-21T21:28:32.625Z,82.50
2019-04-21T21:31:07.480Z,82.40
2019-04-21T21:33:37.302Z,82.90
2019-04-21T21:36:06.560Z,84.50
2019-04-21T21:38:39.373Z,83.00
2019-04-21T21:41:00.856Z,83.00
2019-04-21T21:43:23.597Z,82.00
2019-04-21T21:45:55.606Z,83.80
2019-04-21T21:48:38.464Z,84.20
2019-04-21T21:51:04.176Z,84.30
2019-04-21T21:53:26.531Z,84.70
2019-04-21T21:55:53.318Z,83.00
2019-04-21T21:58:29.906Z,81.40
2019-04-21T22:01:00.501Z,80.50
2019-04-21T22:03:35.361Z,80.60
2019-04-21T22:06:06.245Z,80.60
2019-04-21T22:08:30.450Z,80.40
2019-04-21T22:11:01.211Z,80.00
2019-04-21T22:13:37.544Z,80.30
2019-04-21T22:16:06.968Z,80.00
2019-04-21T22:18:56.820Z,79.70
2019-04-21T22:21:14.218Z,81.00
2019-04-21T22:23:47.011Z,81.00
2019-04-21T22:26:07.174Z,81.30
2019-04-21T22:28:36.137Z,81.60
2019-04-21T22:31:13.166Z,81.00
2019-04-21T22:33:41.960Z,82.10
2019-04-21T22:36:23.594Z,81.80
2019-04-21T22:38:52.210Z,81.00
2019-04-21T22:41:18.947Z,82.20
2019-04-21T22:43:43.794Z,81.50
2019-04-21T22:46:12.396Z,81.10
2019-04-21T22:48:40.962Z,80.40
2019-04-21T22:51:20.530Z,80.20
2019-04-21T22:53:46.481Z,81.40
2019-04-21T22:56:18.485Z,81.30
2019-04-21T22:58:44.450Z,81.60
2019-04-21T23:01:13.264Z,82.30
2019-04-21T23:03:49.234Z,83.10
2019-04-21T23:06:19.185Z,82.80
2019-04-21T23:08:45.652Z,83.00
2019-04-21T23:11:14.691Z,82.90
2019-04-21T23:13:51.369Z,82.70
2019-04-21T23:16:21.029Z,83.40
2019-04-21T23:19:07.518Z,82.40
2019-04-21T23:21:30.420Z,81.30
2019-04-21T23:24:08.755Z,80.90
2019-04-21T23:26:37.523Z,81.10
2019-04-21T23:29:13.940Z,81.10
2019-04-21T23:31:40.668Z,81.70
2019-04-21T23:33:52.716Z,80.60
2019-04-21T23:36:26.281Z,80.40
2019-04-21T23:38:55.027Z,81.50
2019-04-21T23:41:27.336Z,80.80
2019-04-21T23:44:00.381Z,81.30
2019-04-21T23:46:28.184Z,82.80
2019-04-21T23:49:07.149Z,82.10
2019-04-21T23:51:35.441Z,81.80
2019-04-21T23:53:55.426Z,81.20
2019-04-21T23:56:32.887Z,82.50
2019-04-21T23:58:59.871Z,81.90
